sensor_id;sensor_type;location;lat;lon;timestamp;P1;durP1;ratioP1;P2;durP2;ratioP2
19998;SDS011;10160;50.926;4.374;2024-02-26T00:00:31;3.73;;;1.80;;
19998;SDS011;10160;50.926;4.374;2024-02-26T00:02:57;7.03;;;2.20;;
19998;SDS011;10160;50.926;4.374;2024-02-26T00:05:23;5.10;;;1.97;;
19998;SDS011;10160;50.926;4.374;2024-02-26T00:07:48;5.13;;;2.00;;
19998;SDS011;10160;50.926;4.374;2024-02-26T00:10:15;6.53;;;2.00;;
19998;SDS011;10160;50.926;4.374;2024-02-26T00:12:40;3.63;;;1.70;;
19998;SDS011;10160;50.926;4.374;2024-02-26T00:15:06;5.27;;;2.43;;
19998;SDS011;10160;50.926;4.374;2024-02-26T00:17:33;4.20;;;1.70;;
19998;SDS011;10160;50.926;4.374;2024-02-26T00:19:58;3.43;;;1.50;;
19998;SDS011;10160;50.926;4.374;2024-02-26T00:22:25;4.37;;;1.70;;
19998;SDS011;10160;50.926;4.374;2024-02-26T00:24:51;5.47;;;1.60;;
19998;SDS011;10160;50.926;4.374;2024-02-26T00:27:17;4.63;;;1.70;;
19998;SDS011;10160;50.926;4.374;2024-02-26T00:29:43;3.00;;;1.50;;
19998;SDS011;10160;50.926;4.374;2024-02-26T00:32:09;3.40;;;1.60;;
19998;SDS011;10160;50.926;4.374;2024-02-26T00:34:34;3.27;;;1.77;;
19998;SDS011;10160;50.926;4.374;2024-02-26T00:37:01;3.33;;;1.60;;
19998;SDS011;10160;50.926;4.374;2024-02-26T00:39:27;4.50;;;1.90;;
19998;SDS011;10160;50.926;4.374;2024-02-26T00:41:52;4.27;;;1.70;;
19998;SDS011;10160;50.926;4.374;2024-02-26T00:44:18;5.57;;;1.90;;
19998;SDS011;10160;50.926;4.374;2024-02-26T00:46:43;3.97;;;1.67;;
19998;SDS011;10160;50.926;4.374;2024-02-26T00:49:09;4.17;;;1.60;;
19998;SDS011;10160;50.926;4.374;2024-02-26T00:51:35;4.83;;;1.60;;
19998;SDS011;10160;50.926;4.374;2024-02-26T00:54:00;3.60;;;1.70;;
19998;SDS011;10160;50.926;4.374;2024-02-26T00:56:26;6.40;;;1.80;;
19998;SDS011;10160;50.926;4.374;2024-02-26T00:58:52;4.17;;;1.43;;
19998;SDS011;10160;50.926;4.374;2024-02-26T01:01:18;4.77;;;1.80;;
19998;SDS011;10160;50.926;4.374;2024-02-26T01:03:43;5.53;;;1.87;;
19998;SDS011;10160;50.926;4.374;2024-02-26T01:06:09;3.93;;;1.67;;
19998;SDS011;10160;50.926;4.374;2024-02-26T01:08:34;6.03;;;1.63;;
19998;SDS011;10160;50.926;4.374;2024-02-26T01:11:00;4.23;;;1.77;;
19998;SDS011;10160;50.926;4.374;2024-02-26T01:13:26;5.53;;;1.93;;
19998;SDS011;10160;50.926;4.374;2024-02-26T01:15:52;5.23;;;2.30;;
19998;SDS011;10160;50.926;4.374;2024-02-26T01:18:17;5.13;;;1.87;;
19998;SDS011;10160;50.926;4.374;2024-02-26T01:20:43;4.80;;;1.80;;
19998;SDS011;10160;50.926;4.374;2024-02-26T01:23:09;3.37;;;1.80;;
19998;SDS011;10160;50.926;4.374;2024-02-26T01:25:34;7.30;;;1.60;;
19998;SDS011;10160;50.926;4.374;2024-02-26T01:28:00;3.23;;;1.70;;
19998;SDS011;10160;50.926;4.374;2024-02-26T01:30:25;4.70;;;1.83;;
19998;SDS011;10160;50.926;4.374;2024-02-26T01:32:51;3.07;;;1.53;;
19998;SDS011;10160;50.926;4.374;2024-02-26T01:35:17;7.40;;;1.70;;
19998;SDS011;10160;50.926;4.374;2024-02-26T01:37:42;4.43;;;1.73;;
19998;SDS011;10160;50.926;4.374;2024-02-26T01:40:08;3.53;;;1.50;;
19998;SDS011;10160;50.926;4.374;2024-02-26T01:42:34;3.73;;;1.63;;
19998;SDS011;10160;50.926;4.374;2024-02-26T01:45:00;3.70;;;1.50;;
19998;SDS011;10160;50.926;4.374;2024-02-26T01:47:26;2.60;;;1.40;;
19998;SDS011;10160;50.926;4.374;2024-02-26T01:49:52;3.23;;;1.40;;
19998;SDS011;10160;50.926;4.374;2024-02-26T01:52:18;3.73;;;1.60;;
19998;SDS011;10160;50.926;4.374;2024-02-26T01:54:45;2.33;;;1.30;;
19998;SDS011;10160;50.926;4.374;2024-02-26T01:57:11;6.27;;;1.50;;
19998;SDS011;10160;50.926;4.374;2024-02-26T01:59:38;2.57;;;1.17;;
19998;SDS011;10160;50.926;4.374;2024-02-26T02:02:05;3.80;;;1.70;;
19998;SDS011;10160;50.926;4.374;2024-02-26T02:04:33;5.13;;;1.70;;
19998;SDS011;10160;50.926;4.374;2024-02-26T02:07:00;3.20;;;1.40;;
19998;SDS011;10160;50.926;4.374;2024-02-26T02:09:27;3.07;;;1.50;;
19998;SDS011;10160;50.926;4.374;2024-02-26T02:11:53;5.97;;;1.37;;
19998;SDS011;10160;50.926;4.374;2024-02-26T02:14:19;3.47;;;1.50;;
19998;SDS011;10160;50.926;4.374;2024-02-26T02:16:45;3.13;;;1.53;;
19998;SDS011;10160;50.926;4.374;2024-02-26T02:19:12;2.93;;;1.37;;
19998;SDS011;10160;50.926;4.374;2024-02-26T02:21:38;2.83;;;1.50;;
19998;SDS011;10160;50.926;4.374;2024-02-26T02:24:03;3.40;;;1.40;;
19998;SDS011;10160;50.926;4.374;2024-02-26T02:26:29;2.70;;;1.47;;
19998;SDS011;10160;50.926;4.374;2024-02-26T02:28:55;5.20;;;1.53;;
19998;SDS011;10160;50.926;4.374;2024-02-26T02:31:21;4.00;;;1.33;;
19998;SDS011;10160;50.926;4.374;2024-02-26T02:33:47;3.67;;;1.60;;
19998;SDS011;10160;50.926;4.374;2024-02-26T02:36:13;4.50;;;1.60;;
19998;SDS011;10160;50.926;4.374;2024-02-26T02:38:48;3.90;;;1.53;;
19998;SDS011;10160;50.926;4.374;2024-02-26T02:41:15;3.77;;;2.00;;
19998;SDS011;10160;50.926;4.374;2024-02-26T02:43:41;3.67;;;1.70;;
19998;SDS011;10160;50.926;4.374;2024-02-26T02:46:06;5.07;;;1.90;;
19998;SDS011;10160;50.926;4.374;2024-02-26T02:48:32;3.73;;;1.83;;
19998;SDS011;10160;50.926;4.374;2024-02-26T02:50:57;4.23;;;2.10;;
19998;SDS011;10160;50.926;4.374;2024-02-26T02:53:23;5.23;;;1.90;;
19998;SDS011;10160;50.926;4.374;2024-02-26T02:55:49;4.30;;;1.80;;
19998;SDS011;10160;50.926;4.374;2024-02-26T02:58:14;5.13;;;2.27;;
19998;SDS011;10160;50.926;4.374;2024-02-26T03:00:40;3.60;;;2.10;;
19998;SDS011;10160;50.926;4.374;2024-02-26T03:03:06;4.73;;;2.03;;
19998;SDS011;10160;50.926;4.374;2024-02-26T03:05:31;4.97;;;2.73;;
19998;SDS011;10160;50.926;4.374;2024-02-26T03:08:00;5.33;;;2.20;;
19998;SDS011;10160;50.926;4.374;2024-02-26T03:10:26;6.90;;;2.17;;
19998;SDS011;10160;50.926;4.374;2024-02-26T03:12:51;6.83;;;2.87;;
19998;SDS011;10160;50.926;4.374;2024-02-26T03:15:17;6.13;;;2.97;;
19998;SDS011;10160;50.926;4.374;2024-02-26T03:17:42;4.63;;;2.80;;
19998;SDS011;10160;50.926;4.374;2024-02-26T03:20:08;8.83;;;3.47;;
19998;SDS011;10160;50.926;4.374;2024-02-26T03:22:34;5.60;;;3.47;;
19998;SDS011;10160;50.926;4.374;2024-02-26T03:25:00;7.90;;;3.20;;
19998;SDS011;10160;50.926;4.374;2024-02-26T03:27:26;6.70;;;2.97;;
19998;SDS011;10160;50.926;4.374;2024-02-26T03:29:52;4.83;;;3.00;;
19998;SDS011;10160;50.926;4.374;2024-02-26T03:32:18;5.87;;;3.03;;
19998;SDS011;10160;50.926;4.374;2024-02-26T03:34:43;6.33;;;2.90;;
19998;SDS011;10160;50.926;4.374;2024-02-26T03:37:09;4.93;;;2.93;;
19998;SDS011;10160;50.926;4.374;2024-02-26T03:39:36;6.33;;;3.07;;
19998;SDS011;10160;50.926;4.374;2024-02-26T03:42:02;5.33;;;3.23;;
19998;SDS011;10160;50.926;4.374;2024-02-26T03:44:27;5.47;;;2.97;;
19998;SDS011;10160;50.926;4.374;2024-02-26T03:46:53;6.40;;;3.40;;
19998;SDS011;10160;50.926;4.374;2024-02-26T03:49:19;7.20;;;3.60;;
19998;SDS011;10160;50.926;4.374;2024-02-26T03:51:44;6.93;;;4.43;;
19998;SDS011;10160;50.926;4.374;2024-02-26T03:54:10;7.03;;;3.40;;
19998;SDS011;10160;50.926;4.374;2024-02-26T03:56:35;6.47;;;4.10;;
19998;SDS011;10160;50.926;4.374;2024-02-26T03:59:01;7.33;;;4.17;;
19998;SDS011;10160;50.926;4.374;2024-02-26T04:01:27;7.00;;;4.43;;
19998;SDS011;10160;50.926;4.374;2024-02-26T04:03:53;10.10;;;4.70;;
19998;SDS011;10160;50.926;4.374;2024-02-26T04:06:19;8.80;;;4.07;;
19998;SDS011;10160;50.926;4.374;2024-02-26T04:08:46;8.73;;;5.00;;
19998;SDS011;10160;50.926;4.374;2024-02-26T04:11:12;9.17;;;5.20;;
19998;SDS011;10160;50.926;4.374;2024-02-26T04:13:38;8.20;;;4.90;;
19998;SDS011;10160;50.926;4.374;2024-02-26T04:16:07;12.97;;;5.50;;
19998;SDS011;10160;50.926;4.374;2024-02-26T04:18:32;12.37;;;5.80;;
19998;SDS011;10160;50.926;4.374;2024-02-26T04:20:58;8.53;;;5.07;;
19998;SDS011;10160;50.926;4.374;2024-02-26T04:23:24;8.03;;;5.20;;
19998;SDS011;10160;50.926;4.374;2024-02-26T04:25:50;9.10;;;5.50;;
19998;SDS011;10160;50.926;4.374;2024-02-26T04:28:15;8.67;;;5.30;;
19998;SDS011;10160;50.926;4.374;2024-02-26T04:30:41;9.80;;;5.40;;
19998;SDS011;10160;50.926;4.374;2024-02-26T04:33:07;12.10;;;6.43;;
19998;SDS011;10160;50.926;4.374;2024-02-26T04:35:32;10.53;;;6.53;;
19998;SDS011;10160;50.926;4.374;2024-02-26T04:38:00;9.20;;;6.10;;
19998;SDS011;10160;50.926;4.374;2024-02-26T04:40:26;11.83;;;6.17;;
19998;SDS011;10160;50.926;4.374;2024-02-26T04:42:51;10.67;;;6.20;;
19998;SDS011;10160;50.926;4.374;2024-02-26T04:45:17;10.37;;;6.33;;
19998;SDS011;10160;50.926;4.374;2024-02-26T04:47:42;10.53;;;6.90;;
19998;SDS011;10160;50.926;4.374;2024-02-26T04:50:08;12.13;;;6.97;;
19998;SDS011;10160;50.926;4.374;2024-02-26T04:52:34;12.43;;;6.30;;
19998;SDS011;10160;50.926;4.374;2024-02-26T04:54:59;14.07;;;7.00;;
19998;SDS011;10160;50.926;4.374;2024-02-26T04:57:25;11.87;;;7.07;;
19998;SDS011;10160;50.926;4.374;2024-02-26T04:59:51;12.40;;;6.70;;
19998;SDS011;10160;50.926;4.374;2024-02-26T05:02:17;10.70;;;6.77;;
19998;SDS011;10160;50.926;4.374;2024-02-26T05:04:42;11.47;;;7.73;;
19998;SDS011;10160;50.926;4.374;2024-02-26T05:07:08;13.37;;;8.03;;
19998;SDS011;10160;50.926;4.374;2024-02-26T05:09:34;16.60;;;8.23;;
19998;SDS011;10160;50.926;4.374;2024-02-26T05:12:00;14.57;;;8.20;;
19998;SDS011;10160;50.926;4.374;2024-02-26T05:14:26;13.63;;;8.93;;
19998;SDS011;10160;50.926;4.374;2024-02-26T05:16:51;15.37;;;8.93;;
19998;SDS011;10160;50.926;4.374;2024-02-26T05:19:17;16.20;;;9.23;;
19998;SDS011;10160;50.926;4.374;2024-02-26T05:21:42;14.57;;;9.57;;
19998;SDS011;10160;50.926;4.374;2024-02-26T05:24:09;17.43;;;10.47;;
19998;SDS011;10160;50.926;4.374;2024-02-26T05:26:35;14.97;;;9.57;;
19998;SDS011;10160;50.926;4.374;2024-02-26T05:29:00;16.77;;;9.93;;
19998;SDS011;10160;50.926;4.374;2024-02-26T05:31:26;17.37;;;10.33;;
19998;SDS011;10160;50.926;4.374;2024-02-26T05:33:53;17.43;;;10.97;;
19998;SDS011;10160;50.926;4.374;2024-02-26T05:36:22;15.23;;;10.63;;
19998;SDS011;10160;50.926;4.374;2024-02-26T05:38:48;15.40;;;9.70;;
19998;SDS011;10160;50.926;4.374;2024-02-26T05:41:17;17.43;;;10.40;;
19998;SDS011;10160;50.926;4.374;2024-02-26T05:43:48;17.13;;;11.33;;
19998;SDS011;10160;50.926;4.374;2024-02-26T05:46:16;16.87;;;10.27;;
19998;SDS011;10160;50.926;4.374;2024-02-26T05:48:42;19.20;;;10.27;;
19998;SDS011;10160;50.926;4.374;2024-02-26T05:51:09;16.63;;;10.20;;
19998;SDS011;10160;50.926;4.374;2024-02-26T05:53:35;14.40;;;10.40;;
19998;SDS011;10160;50.926;4.374;2024-02-26T05:56:00;20.70;;;10.77;;
19998;SDS011;10160;50.926;4.374;2024-02-26T05:58:26;13.97;;;10.07;;
19998;SDS011;10160;50.926;4.374;2024-02-26T06:00:51;13.60;;;9.47;;
19998;SDS011;10160;50.926;4.374;2024-02-26T06:03:17;16.03;;;10.37;;
19998;SDS011;10160;50.926;4.374;2024-02-26T06:05:43;16.60;;;10.13;;
19998;SDS011;10160;50.926;4.374;2024-02-26T06:08:08;17.90;;;10.23;;
19998;SDS011;10160;50.926;4.374;2024-02-26T06:10:34;15.10;;;9.63;;
19998;SDS011;10160;50.926;4.374;2024-02-26T06:13:00;17.90;;;10.00;;
19998;SDS011;10160;50.926;4.374;2024-02-26T06:15:25;14.73;;;9.40;;
19998;SDS011;10160;50.926;4.374;2024-02-26T06:17:51;14.70;;;9.67;;
19998;SDS011;10160;50.926;4.374;2024-02-26T06:20:16;14.33;;;9.77;;
19998;SDS011;10160;50.926;4.374;2024-02-26T06:22:42;16.70;;;9.03;;
19998;SDS011;10160;50.926;4.374;2024-02-26T06:25:08;16.17;;;10.40;;
19998;SDS011;10160;50.926;4.374;2024-02-26T06:27:34;15.10;;;9.70;;
19998;SDS011;10160;50.926;4.374;2024-02-26T06:30:00;15.70;;;9.93;;
19998;SDS011;10160;50.926;4.374;2024-02-26T06:32:26;17.60;;;9.87;;
19998;SDS011;10160;50.926;4.374;2024-02-26T06:34:53;14.47;;;9.97;;
19998;SDS011;10160;50.926;4.374;2024-02-26T06:37:19;15.03;;;9.90;;
19998;SDS011;10160;50.926;4.374;2024-02-26T06:39:48;14.23;;;10.07;;
19998;SDS011;10160;50.926;4.374;2024-02-26T06:42:17;15.90;;;10.63;;
19998;SDS011;10160;50.926;4.374;2024-02-26T06:44:42;15.73;;;10.97;;
19998;SDS011;10160;50.926;4.374;2024-02-26T06:47:08;17.80;;;10.40;;
19998;SDS011;10160;50.926;4.374;2024-02-26T06:49:36;15.33;;;10.57;;
19998;SDS011;10160;50.926;4.374;2024-02-26T06:52:02;15.00;;;10.60;;
19998;SDS011;10160;50.926;4.374;2024-02-26T06:54:28;15.83;;;11.17;;
19998;SDS011;10160;50.926;4.374;2024-02-26T06:56:53;18.47;;;10.53;;
19998;SDS011;10160;50.926;4.374;2024-02-26T06:59:19;14.30;;;10.10;;
19998;SDS011;10160;50.926;4.374;2024-02-26T07:01:45;15.73;;;10.77;;
19998;SDS011;10160;50.926;4.374;2024-02-26T07:04:10;16.93;;;10.77;;
19998;SDS011;10160;50.926;4.374;2024-02-26T07:06:36;17.23;;;11.43;;
19998;SDS011;10160;50.926;4.374;2024-02-26T07:09:02;16.63;;;11.13;;
19998;SDS011;10160;50.926;4.374;2024-02-26T07:11:28;16.80;;;11.07;;
19998;SDS011;10160;50.926;4.374;2024-02-26T07:13:53;17.47;;;12.13;;
19998;SDS011;10160;50.926;4.374;2024-02-26T07:16:19;19.20;;;11.27;;
19998;SDS011;10160;50.926;4.374;2024-02-26T07:18:44;18.20;;;12.20;;
19998;SDS011;10160;50.926;4.374;2024-02-26T07:21:11;16.60;;;11.63;;
19998;SDS011;10160;50.926;4.374;2024-02-26T07:23:37;16.73;;;11.47;;
19998;SDS011;10160;50.926;4.374;2024-02-26T07:26:02;17.90;;;12.07;;
19998;SDS011;10160;50.926;4.374;2024-02-26T07:28:28;17.17;;;11.70;;
19998;SDS011;10160;50.926;4.374;2024-02-26T07:30:54;18.23;;;12.00;;
19998;SDS011;10160;50.926;4.374;2024-02-26T07:33:20;16.80;;;11.37;;
19998;SDS011;10160;50.926;4.374;2024-02-26T07:35:45;14.63;;;10.83;;
19998;SDS011;10160;50.926;4.374;2024-02-26T07:38:11;17.17;;;11.33;;
19998;SDS011;10160;50.926;4.374;2024-02-26T07:40:38;15.13;;;11.17;;
19998;SDS011;10160;50.926;4.374;2024-02-26T07:43:04;14.53;;;9.63;;
19998;SDS011;10160;50.926;4.374;2024-02-26T07:45:30;17.40;;;11.50;;
19998;SDS011;10160;50.926;4.374;2024-02-26T07:47:55;16.40;;;10.40;;
19998;SDS011;10160;50.926;4.374;2024-02-26T07:50:21;14.97;;;10.83;;
19998;SDS011;10160;50.926;4.374;2024-02-26T07:52:47;14.57;;;10.07;;
19998;SDS011;10160;50.926;4.374;2024-02-26T07:55:12;14.60;;;10.37;;
19998;SDS011;10160;50.926;4.374;2024-02-26T07:57:41;15.83;;;10.17;;
19998;SDS011;10160;50.926;4.374;2024-02-26T08:00:08;13.80;;;10.00;;
19998;SDS011;10160;50.926;4.374;2024-02-26T08:02:35;12.70;;;9.67;;
19998;SDS011;10160;50.926;4.374;2024-02-26T08:05:01;14.63;;;9.50;;
19998;SDS011;10160;50.926;4.374;2024-02-26T08:07:27;14.53;;;9.83;;
19998;SDS011;10160;50.926;4.374;2024-02-26T08:09:53;12.97;;;9.27;;
19998;SDS011;10160;50.926;4.374;2024-02-26T08:12:19;12.43;;;8.97;;
19998;SDS011;10160;50.926;4.374;2024-02-26T08:14:44;13.67;;;8.60;;
19998;SDS011;10160;50.926;4.374;2024-02-26T08:17:10;14.03;;;9.70;;
19998;SDS011;10160;50.926;4.374;2024-02-26T08:19:36;15.93;;;9.03;;
19998;SDS011;10160;50.926;4.374;2024-02-26T08:22:02;12.70;;;9.20;;
19998;SDS011;10160;50.926;4.374;2024-02-26T08:24:27;13.57;;;9.53;;
19998;SDS011;10160;50.926;4.374;2024-02-26T08:26:53;12.67;;;9.23;;
19998;SDS011;10160;50.926;4.374;2024-02-26T08:29:19;12.93;;;9.33;;
19998;SDS011;10160;50.926;4.374;2024-02-26T08:31:45;15.23;;;9.73;;
19998;SDS011;10160;50.926;4.374;2024-02-26T08:34:10;12.40;;;9.13;;
19998;SDS011;10160;50.926;4.374;2024-02-26T08:36:36;13.03;;;9.33;;
19998;SDS011;10160;50.926;4.374;2024-02-26T08:39:02;14.50;;;10.47;;
19998;SDS011;10160;50.926;4.374;2024-02-26T08:41:28;13.47;;;9.33;;
19998;SDS011;10160;50.926;4.374;2024-02-26T08:43:54;12.17;;;8.97;;
19998;SDS011;10160;50.926;4.374;2024-02-26T08:46:19;14.03;;;8.93;;
19998;SDS011;10160;50.926;4.374;2024-02-26T08:48:45;13.83;;;9.07;;
19998;SDS011;10160;50.926;4.374;2024-02-26T08:51:11;12.40;;;8.90;;
19998;SDS011;10160;50.926;4.374;2024-02-26T08:53:38;13.57;;;8.90;;
19998;SDS011;10160;50.926;4.374;2024-02-26T08:56:04;12.83;;;8.47;;
19998;SDS011;10160;50.926;4.374;2024-02-26T08:58:30;13.23;;;9.17;;
19998;SDS011;10160;50.926;4.374;2024-02-26T09:00:56;14.07;;;9.73;;
19998;SDS011;10160;50.926;4.374;2024-02-26T09:03:22;11.30;;;8.37;;
19998;SDS011;10160;50.926;4.374;2024-02-26T09:05:48;13.20;;;8.60;;
19998;SDS011;10160;50.926;4.374;2024-02-26T09:08:14;12.10;;;8.03;;
19998;SDS011;10160;50.926;4.374;2024-02-26T09:10:39;11.87;;;8.77;;
19998;SDS011;10160;50.926;4.374;2024-02-26T09:13:05;13.97;;;8.93;;
19998;SDS011;10160;50.926;4.374;2024-02-26T09:15:31;13.23;;;8.30;;
19998;SDS011;10160;50.926;4.374;2024-02-26T09:17:57;12.97;;;9.20;;
19998;SDS011;10160;50.926;4.374;2024-02-26T09:20:23;13.70;;;9.53;;
19998;SDS011;10160;50.926;4.374;2024-02-26T09:22:49;16.33;;;9.47;;
19998;SDS011;10160;50.926;4.374;2024-02-26T09:25:15;13.37;;;8.77;;
19998;SDS011;10160;50.926;4.374;2024-02-26T09:27:44;13.30;;;9.00;;
19998;SDS011;10160;50.926;4.374;2024-02-26T09:30:11;15.67;;;9.67;;
19998;SDS011;10160;50.926;4.374;2024-02-26T09:32:38;13.70;;;9.30;;
19998;SDS011;10160;50.926;4.374;2024-02-26T09:35:04;12.30;;;8.27;;
19998;SDS011;10160;50.926;4.374;2024-02-26T09:37:30;14.07;;;9.57;;
19998;SDS011;10160;50.926;4.374;2024-02-26T09:39:56;12.50;;;8.70;;
19998;SDS011;10160;50.926;4.374;2024-02-26T09:42:21;14.27;;;9.47;;
19998;SDS011;10160;50.926;4.374;2024-02-26T09:44:51;14.67;;;9.50;;
19998;SDS011;10160;50.926;4.374;2024-02-26T09:47:23;14.53;;;9.53;;
19998;SDS011;10160;50.926;4.374;2024-02-26T09:49:52;13.30;;;9.17;;
19998;SDS011;10160;50.926;4.374;2024-02-26T09:52:20;13.20;;;9.07;;
19998;SDS011;10160;50.926;4.374;2024-02-26T09:54:47;15.70;;;10.10;;
19998;SDS011;10160;50.926;4.374;2024-02-26T09:57:13;15.60;;;10.13;;
19998;SDS011;10160;50.926;4.374;2024-02-26T09:59:42;15.83;;;9.33;;
19998;SDS011;10160;50.926;4.374;2024-02-26T10:02:12;14.00;;;10.17;;
19998;SDS011;10160;50.926;4.374;2024-02-26T10:04:39;12.57;;;8.73;;
19998;SDS011;10160;50.926;4.374;2024-02-26T10:07:07;15.00;;;9.13;;
19998;SDS011;10160;50.926;4.374;2024-02-26T10:09:35;13.70;;;9.00;;
19998;SDS011;10160;50.926;4.374;2024-02-26T10:12:01;13.43;;;9.00;;
19998;SDS011;10160;50.926;4.374;2024-02-26T10:14:28;14.27;;;9.07;;
19998;SDS011;10160;50.926;4.374;2024-02-26T10:16:53;16.60;;;9.43;;
19998;SDS011;10160;50.926;4.374;2024-02-26T10:19:26;13.00;;;8.87;;
19998;SDS011;10160;50.926;4.374;2024-02-26T10:21:59;12.30;;;8.30;;
19998;SDS011;10160;50.926;4.374;2024-02-26T10:24:29;11.67;;;7.90;;
19998;SDS011;10160;50.926;4.374;2024-02-26T10:26:55;12.10;;;7.60;;
19998;SDS011;10160;50.926;4.374;2024-02-26T10:29:23;10.90;;;7.73;;
19998;SDS011;10160;50.926;4.374;2024-02-26T10:31:50;13.23;;;8.00;;
19998;SDS011;10160;50.926;4.374;2024-02-26T10:34:16;12.77;;;8.60;;
19998;SDS011;10160;50.926;4.374;2024-02-26T10:36:42;12.83;;;8.23;;
19998;SDS011;10160;50.926;4.374;2024-02-26T10:39:09;10.70;;;7.30;;
19998;SDS011;10160;50.926;4.374;2024-02-26T10:41:36;11.87;;;7.23;;
19998;SDS011;10160;50.926;4.374;2024-02-26T10:44:03;10.70;;;6.73;;
19998;SDS011;10160;50.926;4.374;2024-02-26T10:46:29;9.80;;;6.80;;
19998;SDS011;10160;50.926;4.374;2024-02-26T10:48:54;9.53;;;6.27;;
19998;SDS011;10160;50.926;4.374;2024-02-26T10:51:30;10.33;;;6.63;;
19998;SDS011;10160;50.926;4.374;2024-02-26T10:53:57;10.87;;;6.53;;
19998;SDS011;10160;50.926;4.374;2024-02-26T10:56:26;9.97;;;6.53;;
19998;SDS011;10160;50.926;4.374;2024-02-26T10:58:54;9.00;;;6.73;;
19998;SDS011;10160;50.926;4.374;2024-02-26T11:01:21;9.13;;;5.73;;
19998;SDS011;10160;50.926;4.374;2024-02-26T11:03:51;8.20;;;5.37;;
19998;SDS011;10160;50.926;4.374;2024-02-26T11:06:18;8.03;;;5.37;;
19998;SDS011;10160;50.926;4.374;2024-02-26T11:08:52;9.57;;;5.27;;
19998;SDS011;10160;50.926;4.374;2024-02-26T11:11:19;9.57;;;5.90;;
19998;SDS011;10160;50.926;4.374;2024-02-26T11:13:47;8.70;;;5.63;;
19998;SDS011;10160;50.926;4.374;2024-02-26T11:16:17;9.23;;;5.10;;
19998;SDS011;10160;50.926;4.374;2024-02-26T11:18:43;7.20;;;4.67;;
19998;SDS011;10160;50.926;4.374;2024-02-26T11:21:13;7.83;;;4.43;;
19998;SDS011;10160;50.926;4.374;2024-02-26T11:23:40;9.10;;;4.60;;
19998;SDS011;10160;50.926;4.374;2024-02-26T11:26:07;9.03;;;4.90;;
19998;SDS011;10160;50.926;4.374;2024-02-26T11:28:35;6.80;;;4.47;;
19998;SDS011;10160;50.926;4.374;2024-02-26T11:31:01;8.03;;;4.83;;
19998;SDS011;10160;50.926;4.374;2024-02-26T11:33:29;8.47;;;5.30;;
19998;SDS011;10160;50.926;4.374;2024-02-26T11:35:55;7.23;;;4.83;;
19998;SDS011;10160;50.926;4.374;2024-02-26T11:38:21;6.90;;;4.60;;
19998;SDS011;10160;50.926;4.374;2024-02-26T11:40:50;9.47;;;5.40;;
19998;SDS011;10160;50.926;4.374;2024-02-26T11:43:18;8.43;;;5.63;;
19998;SDS011;10160;50.926;4.374;2024-02-26T11:45:48;6.80;;;4.57;;
19998;SDS011;10160;50.926;4.374;2024-02-26T11:48:19;7.03;;;5.00;;
19998;SDS011;10160;50.926;4.374;2024-02-26T11:50:53;8.27;;;4.70;;
19998;SDS011;10160;50.926;4.374;2024-02-26T11:58:58;7.95;;;5.50;;
19998;SDS011;10160;50.926;4.374;2024-02-26T12:04:30;9.97;;;4.80;;
19998;SDS011;10160;50.926;4.374;2024-02-26T12:06:57;10.43;;;5.50;;
19998;SDS011;10160;50.926;4.374;2024-02-26T12:09:38;6.70;;;4.50;;
19998;SDS011;10160;50.926;4.374;2024-02-26T12:12:06;10.13;;;5.17;;
19998;SDS011;10160;50.926;4.374;2024-02-26T12:14:39;8.13;;;4.97;;
19998;SDS011;10160;50.926;4.374;2024-02-26T12:17:06;7.57;;;5.13;;
19998;SDS011;10160;50.926;4.374;2024-02-26T12:19:34;8.30;;;5.17;;
19998;SDS011;10160;50.926;4.374;2024-02-26T12:22:01;7.23;;;5.10;;
19998;SDS011;10160;50.926;4.374;2024-02-26T12:24:27;7.57;;;5.30;;
19998;SDS011;10160;50.926;4.374;2024-02-26T12:26:53;18.57;;;5.20;;
19998;SDS011;10160;50.926;4.374;2024-02-26T12:29:18;7.07;;;5.10;;
19998;SDS011;10160;50.926;4.374;2024-02-26T12:31:44;8.23;;;5.23;;
19998;SDS011;10160;50.926;4.374;2024-02-26T12:34:10;6.73;;;4.53;;
19998;SDS011;10160;50.926;4.374;2024-02-26T12:36:37;7.73;;;4.90;;
19998;SDS011;10160;50.926;4.374;2024-02-26T12:39:04;9.27;;;5.43;;
19998;SDS011;10160;50.926;4.374;2024-02-26T12:41:33;8.53;;;5.37;;
19998;SDS011;10160;50.926;4.374;2024-02-26T12:43:59;7.93;;;5.30;;
19998;SDS011;10160;50.926;4.374;2024-02-26T12:46:25;8.40;;;5.83;;
19998;SDS011;10160;50.926;4.374;2024-02-26T12:48:50;11.13;;;5.77;;
19998;SDS011;10160;50.926;4.374;2024-02-26T12:51:16;8.40;;;5.77;;
19998;SDS011;10160;50.926;4.374;2024-02-26T12:53:43;9.67;;;6.37;;
19998;SDS011;10160;50.926;4.374;2024-02-26T12:56:10;9.50;;;6.03;;
19998;SDS011;10160;50.926;4.374;2024-02-26T12:58:39;9.53;;;6.30;;
19998;SDS011;10160;50.926;4.374;2024-02-26T13:01:06;9.63;;;6.27;;
19998;SDS011;10160;50.926;4.374;2024-02-26T13:03:41;10.00;;;6.30;;
19998;SDS011;10160;50.926;4.374;2024-02-26T13:06:07;9.13;;;6.47;;
19998;SDS011;10160;50.926;4.374;2024-02-26T13:08:34;10.50;;;6.23;;
19998;SDS011;10160;50.926;4.374;2024-02-26T13:11:00;12.90;;;6.57;;
19998;SDS011;10160;50.926;4.374;2024-02-26T13:13:25;9.33;;;6.20;;
19998;SDS011;10160;50.926;4.374;2024-02-26T13:16:04;11.70;;;6.67;;
19998;SDS011;10160;50.926;4.374;2024-02-26T13:18:31;12.30;;;7.20;;
19998;SDS011;10160;50.926;4.374;2024-02-26T13:21:11;9.57;;;6.37;;
19998;SDS011;10160;50.926;4.374;2024-02-26T13:23:40;9.47;;;6.23;;
19998;SDS011;10160;50.926;4.374;2024-02-26T13:26:07;11.17;;;7.00;;
19998;SDS011;10160;50.926;4.374;2024-02-26T13:28:33;11.07;;;6.70;;
19998;SDS011;10160;50.926;4.374;2024-02-26T13:30:59;13.40;;;6.77;;
19998;SDS011;10160;50.926;4.374;2024-02-26T13:33:27;8.80;;;6.17;;
19998;SDS011;10160;50.926;4.374;2024-02-26T13:35:54;10.30;;;6.50;;
19998;SDS011;10160;50.926;4.374;2024-02-26T13:38:20;10.77;;;7.17;;
19998;SDS011;10160;50.926;4.374;2024-02-26T13:40:46;11.27;;;6.83;;
19998;SDS011;10160;50.926;4.374;2024-02-26T13:43:11;10.30;;;6.80;;
19998;SDS011;10160;50.926;4.374;2024-02-26T13:45:38;10.27;;;7.00;;
19998;SDS011;10160;50.926;4.374;2024-02-26T13:48:04;13.13;;;7.33;;
19998;SDS011;10160;50.926;4.374;2024-02-26T13:50:31;10.37;;;6.20;;
19998;SDS011;10160;50.926;4.374;2024-02-26T13:52:57;11.40;;;6.80;;
19998;SDS011;10160;50.926;4.374;2024-02-26T13:55:25;14.43;;;7.37;;
19998;SDS011;10160;50.926;4.374;2024-02-26T13:57:53;10.67;;;7.27;;
19998;SDS011;10160;50.926;4.374;2024-02-26T14:00:22;10.33;;;7.33;;
19998;SDS011;10160;50.926;4.374;2024-02-26T14:02:49;11.77;;;7.17;;
19998;SDS011;10160;50.926;4.374;2024-02-26T14:05:15;10.43;;;6.00;;
19998;SDS011;10160;50.926;4.374;2024-02-26T14:07:41;10.90;;;6.87;;
19998;SDS011;10160;50.926;4.374;2024-02-26T14:10:08;10.53;;;6.57;;
19998;SDS011;10160;50.926;4.374;2024-02-26T14:12:35;10.63;;;6.47;;
19998;SDS011;10160;50.926;4.374;2024-02-26T14:15:00;11.57;;;6.90;;
19998;SDS011;10160;50.926;4.374;2024-02-26T14:17:29;11.73;;;6.53;;
19998;SDS011;10160;50.926;4.374;2024-02-26T14:19:55;11.20;;;7.03;;
19998;SDS011;10160;50.926;4.374;2024-02-26T14:22:21;12.73;;;7.10;;
19998;SDS011;10160;50.926;4.374;2024-02-26T14:24:47;15.53;;;7.20;;
19998;SDS011;10160;50.926;4.374;2024-02-26T14:27:13;12.60;;;7.13;;
19998;SDS011;10160;50.926;4.374;2024-02-26T14:29:42;12.70;;;7.80;;
19998;SDS011;10160;50.926;4.374;2024-02-26T14:32:09;12.47;;;7.90;;
19998;SDS011;10160;50.926;4.374;2024-02-26T14:34:35;14.93;;;7.77;;
19998;SDS011;10160;50.926;4.374;2024-02-26T14:37:01;12.23;;;7.73;;
19998;SDS011;10160;50.926;4.374;2024-02-26T14:39:27;11.83;;;7.13;;
19998;SDS011;10160;50.926;4.374;2024-02-26T14:41:54;12.33;;;7.47;;